createdAt,value
2022-12-26T00:29:32.531Z,1001.11
2022-12-26T00:30:12.963Z,1001.14
2022-12-26T00:30:53.451Z,1001.07
2022-12-26T00:31:33.995Z,1001.11
2022-12-26T00:32:14.475Z,1001.11
2022-12-26T00:32:54.925Z,1001.1
2022-12-26T00:33:35.427Z,1001.1
2022-12-26T00:34:15.953Z,1001.12
2022-12-26T00:34:56.361Z,1001.16
2022-12-26T00:35:36.860Z,1001.18
2022-12-26T00:36:17.370Z,1001.2
2022-12-26T00:36:57.938Z,1001.11
2022-12-26T00:37:38.323Z,1001.2
2022-12-26T00:38:18.878Z,1001.23
2022-12-26T00:38:59.420Z,1001.17
2022-12-26T00:39:39.867Z,1001.12
2022-12-26T00:40:20.336Z,1001.12
2022-12-26T00:41:00.905Z,1001.14
2022-12-26T00:41:41.388Z,1001.16
2022-12-26T00:42:21.885Z,1001.08
2022-12-26T00:43:02.388Z,1001.16
2022-12-26T00:43:42.868Z,1001.19
2022-12-26T00:44:23.364Z,1001.17
2022-12-26T00:45:03.885Z,1001.17
2022-12-26T00:45:44.410Z,1001.14
2022-12-26T00:46:25.010Z,1001.14
2022-12-26T00:47:05.447Z,1001.13
2022-12-26T00:47:45.897Z,1001.21
2022-12-26T00:48:26.412Z,1001.18
2022-12-26T00:49:06.969Z,1001.22
2022-12-26T00:50:11.883Z,1001.23
2022-12-26T00:50:32.717Z,1001.22
2022-12-26T00:51:48.952Z,1001.23
2022-12-26T00:52:29.528Z,1001.27
2022-12-26T00:53:10.072Z,1001.35
2022-12-26T00:53:50.553Z,1001.29
2022-12-26T00:54:31.087Z,1001.2
2022-12-26T00:55:11.612Z,1001.28
2022-12-26T00:55:52.058Z,1001.13
2022-12-26T00:56:32.603Z,1001.3
2022-12-26T00:57:13.095Z,1001.33
2022-12-26T00:57:53.594Z,1001.31
2022-12-26T00:58:34.094Z,1001.32
2022-12-26T00:59:14.613Z,1001.22
2022-12-26T00:59:55.183Z,1001.26
2022-12-26T01:00:35.709Z,1001.25
2022-12-26T01:01:16.279Z,1001.24
2022-12-26T01:01:56.806Z,1001.22
2022-12-26T01:02:37.251Z,1001.29
2022-12-26T01:03:17.621Z,1001.29
2022-12-26T01:03:58.158Z,1001.24
2022-12-26T01:04:38.660Z,1001.24
2022-12-26T01:05:19.162Z,1001.28
2022-12-26T01:05:59.691Z,1001.25
2022-12-26T01:06:40.157Z,1001.37
2022-12-26T01:07:20.702Z,1001.35
2022-12-26T01:08:20.791Z,1001.38
2022-12-26T01:08:41.662Z,1001.49
2022-12-26T01:09:22.175Z,1001.42
2022-12-26T01:10:02.709Z,1001.5
2022-12-26T01:10:43.140Z,1001.52
2022-12-26T01:11:23.648Z,1001.52
2022-12-26T01:12:04.137Z,1001.66
2022-12-26T01:12:44.626Z,1001.64
2022-12-26T01:13:25.138Z,1001.68
2022-12-26T01:14:05.599Z,1001.73
2022-12-26T01:14:46.100Z,1001.74
2022-12-26T01:15:26.588Z,1001.69
2022-12-26T01:16:07.181Z,1001.71
2022-12-26T01:16:47.756Z,1001.76
2022-12-26T01:17:28.125Z,1001.76
2022-12-26T01:18:08.629Z,1001.8
2022-12-26T01:18:49.097Z,1001.86
2022-12-26T01:19:29.583Z,1001.85
2022-12-26T01:20:10.070Z,1001.9
2022-12-26T01:23:08.885Z,1001.85
2022-12-26T01:23:50.269Z,1001.81
2022-12-26T01:24:30.444Z,1001.78
2022-12-26T01:25:10.955Z,1001.86
2022-12-26T01:26:15.951Z,1001.78
2022-12-26T01:26:31.914Z,1001.75
2022-12-26T01:27:12.440Z,1001.66
2022-12-26T01:27:52.904Z,1001.72
2022-12-26T01:28:33.462Z,1001.75
2022-12-26T01:29:13.923Z,1001.72
2022-12-26T01:29:54.404Z,1001.72
2022-12-26T01:30:34.863Z,1001.73
2022-12-26T01:31:15.448Z,1001.79
2022-12-26T01:31:55.930Z,1001.82
2022-12-26T01:32:36.464Z,1001.82
2022-12-26T01:33:16.916Z,1001.83
2022-12-26T01:33:57.439Z,1001.79
2022-12-26T01:34:37.933Z,1001.89
2022-12-26T01:35:18.435Z,1001.88
2022-12-26T01:35:58.960Z,1001.89
2022-12-26T01:36:39.444Z,1001.91
2022-12-26T01:37:19.944Z,1001.87
2022-12-26T01:38:00.464Z,1001.88
2022-12-26T01:38:40.948Z,1001.97
2022-12-26T01:40:01.951Z,1001.8
2022-12-26T01:40:42.443Z,1001.97
2022-12-26T01:41:22.912Z,1001.97
2022-12-26T01:42:03.416Z,1001.93
2022-12-26T01:42:43.898Z,1001.95
2022-12-26T01:43:24.445Z,1001.97
2022-12-26T01:44:04.907Z,1001.84
2022-12-26T01:44:45.401Z,1001.76
2022-12-26T01:45:25.988Z,1001.86
2022-12-26T01:46:06.489Z,1001.79
2022-12-26T01:46:46.974Z,1001.81
2022-12-26T01:47:27.425Z,1001.8
2022-12-26T01:48:07.948Z,1001.87
2022-12-26T01:48:48.441Z,1001.9
2022-12-26T01:49:28.905Z,1001.93
2022-12-26T01:50:09.458Z,1001.91
2022-12-26T01:50:49.876Z,1001.9
2022-12-26T01:51:30.408Z,1001.82
2022-12-26T01:52:10.885Z,1001.91
2022-12-26T01:52:51.422Z,1001.89
2022-12-26T01:53:31.893Z,1001.87
2022-12-26T01:54:38.838Z,1001.8
2022-12-26T01:58:06.516Z,1001.76
2022-12-26T01:58:47.100Z,1001.73
2022-12-26T01:59:27.665Z,1001.73
2022-12-26T02:00:08.133Z,1001.67
2022-12-26T02:00:48.695Z,1001.53
2022-12-26T02:01:29.302Z,1001.63
2022-12-26T02:02:09.912Z,1001.72
2022-12-26T02:02:50.229Z,1001.82
2022-12-26T02:03:30.587Z,1001.75
2022-12-26T02:04:11.068Z,1001.78
2022-12-26T02:04:51.549Z,1001.87
2022-12-26T02:05:32.067Z,1001.83
2022-12-26T02:06:12.509Z,1001.85
2022-12-26T02:06:53.029Z,1001.8
2022-12-26T02:07:33.551Z,1001.78
2022-12-26T02:08:14.147Z,1001.83
2022-12-26T02:08:54.599Z,1001.89
2022-12-26T02:09:35.059Z,1001.93
2022-12-26T02:10:55.957Z,1001.98
2022-12-26T02:11:36.510Z,1002.01
2022-12-26T02:12:33.290Z,1002.06
2022-12-26T02:12:57.520Z,1002.11
2022-12-26T02:13:38.013Z,1002.14
2022-12-26T02:14:18.512Z,1002.15
2022-12-26T02:14:59.061Z,1002.19
2022-12-26T02:15:39.527Z,1002.22
2022-12-26T02:16:20.037Z,1002.16
2022-12-26T02:17:00.619Z,1002.16
2022-12-26T02:17:41.903Z,1002.01
2022-12-26T02:18:22.391Z,1002.03
2022-12-26T02:19:02.941Z,1001.93
2022-12-26T02:19:43.388Z,1001.88
2022-12-26T02:20:23.982Z,1001.96
2022-12-26T02:21:04.415Z,1001.94
2022-12-26T02:21:44.910Z,1002.01
2022-12-26T02:22:25.390Z,1001.99
2022-12-26T02:23:05.948Z,1001.89
2022-12-26T02:23:46.389Z,1002
2022-12-26T02:24:26.965Z,1002.01
2022-12-26T02:25:07.408Z,1001.92
2022-12-26T02:25:47.913Z,1002.04
2022-12-26T02:26:28.396Z,1002.09
2022-12-26T02:27:08.926Z,1002.04
2022-12-26T02:27:49.409Z,1002.06
2022-12-26T02:28:29.928Z,1002.14
2022-12-26T02:29:10.476Z,1002.08
2022-12-26T02:29:50.979Z,1002.14
2022-12-26T02:30:31.447Z,1001.99
2022-12-26T02:31:11.970Z,1002.07
2022-12-26T02:31:52.474Z,1002.11
2022-12-26T02:32:32.942Z,1002.09
2022-12-26T02:33:13.523Z,1002.07
2022-12-26T02:34:34.392Z,1002.07
2022-12-26T02:35:14.888Z,1002.11
2022-12-26T02:35:55.419Z,1002.08
2022-12-26T02:36:35.891Z,1002.11
2022-12-26T02:37:16.394Z,1002.02
2022-12-26T02:37:56.864Z,1002.06
2022-12-26T02:38:37.353Z,1002.08
2022-12-26T02:39:43.105Z,1002.19
2022-12-26T02:39:58.365Z,1002.25
2022-12-26T02:40:38.872Z,1002.24
2022-12-26T02:41:19.375Z,1002.26
2022-12-26T02:41:59.911Z,1002.2
2022-12-26T02:42:40.401Z,1002.33
2022-12-26T02:43:20.892Z,1002.27
2022-12-26T02:44:01.403Z,1002.19
2022-12-26T02:44:41.888Z,1002.22
2022-12-26T02:45:22.396Z,1002.25
2022-12-26T02:46:02.892Z,1002.16
2022-12-26T02:46:43.423Z,1002.04
2022-12-26T02:47:23.875Z,1002.17
2022-12-26T02:48:04.376Z,1002.11
2022-12-26T02:48:44.900Z,1002.11
2022-12-26T02:49:25.385Z,1002.22
2022-12-26T02:50:05.906Z,1002.2
2022-12-26T02:50:46.381Z,1002.11
2022-12-26T02:51:26.916Z,1002.11
2022-12-26T02:52:07.422Z,1002.11
2022-12-26T02:52:47.924Z,1002.14
2022-12-26T02:54:08.972Z,1002.14
2022-12-26T02:54:49.454Z,1002.13
2022-12-26T02:55:29.967Z,1002.11
2022-12-26T02:58:38.607Z,1002.16
2022-12-26T02:59:19.020Z,1002.13
2022-12-26T02:59:59.523Z,1002.17
2022-12-26T03:00:40.011Z,1002.13
2022-12-26T03:01:20.589Z,1002.16
2022-12-26T03:02:01.166Z,1002.18
2022-12-26T03:02:41.588Z,1002.18
2022-12-26T03:03:21.988Z,1002.19
2022-12-26T03:04:02.475Z,1002.19
2022-12-26T03:05:23.423Z,1002.2
2022-12-26T03:06:03.884Z,1002.15
2022-12-26T03:06:44.363Z,1002.15
2022-12-26T03:07:24.855Z,1002.07
2022-12-26T03:08:05.332Z,1001.94
2022-12-26T03:08:45.845Z,1002.12
2022-12-26T03:09:26.315Z,1002.07
2022-12-26T03:10:06.824Z,1002.09
2022-12-26T03:10:47.306Z,1002.1
2022-12-26T03:11:27.793Z,1002.1
2022-12-26T03:12:08.261Z,1002.13
2022-12-26T03:12:48.761Z,1002.13
2022-12-26T03:13:29.299Z,1002.14
2022-12-26T03:14:09.719Z,1002.14
2022-12-26T03:14:50.221Z,1002.13
2022-12-26T03:15:30.669Z,1002.15
2022-12-26T03:16:51.678Z,1002.12
2022-12-26T03:17:32.154Z,1002.1
2022-12-26T03:18:12.629Z,1002.11
2022-12-26T03:18:57.520Z,1002.12
2022-12-26T03:19:33.589Z,1002.15
2022-12-26T03:20:14.057Z,1002.17
2022-12-26T03:20:54.519Z,1002.17
2022-12-26T03:21:35.004Z,1002.17
2022-12-26T03:22:15.492Z,1002.14
2022-12-26T03:22:56.004Z,1002.1
2022-12-26T03:23:36.454Z,1002.09
2022-12-26T03:24:16.963Z,1002.04
2022-12-26T03:24:57.479Z,1002.04
2022-12-26T03:25:38.010Z,1002.05
2022-12-26T03:26:18.500Z,1002.11
2022-12-26T03:26:58.970Z,1002.11
2022-12-26T03:27:39.433Z,1002.16
2022-12-26T03:28:20.000Z,1002.25
2022-12-26T03:29:00.434Z,1002.23
2022-12-26T03:29:40.920Z,1002.17
2022-12-26T03:30:21.422Z,1002.2
2022-12-26T03:31:01.970Z,1002.19
2022-12-26T03:31:42.380Z,1002.16
2022-12-26T03:32:22.873Z,1002.22
2022-12-26T03:33:03.423Z,1002.22
2022-12-26T03:33:43.825Z,1002.21
2022-12-26T03:35:04.846Z,1002.17
2022-12-26T03:35:45.352Z,1002.28
2022-12-26T03:36:25.823Z,1002.18
2022-12-26T03:37:48.109Z,1002.18
2022-12-26T03:38:27.322Z,1002.15
2022-12-26T03:39:07.998Z,1002.08
2022-12-26T03:39:48.275Z,1002.06
2022-12-26T03:40:28.751Z,1002.14
2022-12-26T03:41:09.277Z,1002.13
2022-12-26T03:41:49.758Z,1002.14
2022-12-26T03:42:30.248Z,1002.15
2022-12-26T03:43:10.770Z,1002.2
2022-12-26T03:43:51.234Z,1002.25
2022-12-26T03:44:31.762Z,1002.24
2022-12-26T03:45:12.279Z,1002.35
2022-12-26T03:46:33.312Z,1002.33
2022-12-26T03:47:13.783Z,1002.36
2022-12-26T03:47:54.248Z,1002.34
2022-12-26T03:48:34.706Z,1002.3
2022-12-26T03:49:15.180Z,1002.35
2022-12-26T03:49:55.681Z,1002.26
2022-12-26T03:50:36.203Z,1002.36
2022-12-26T03:51:16.663Z,1002.31
2022-12-26T03:51:57.135Z,1002.36
2022-12-26T03:52:37.600Z,1002.42
2022-12-26T03:53:18.086Z,1002.37
2022-12-26T03:53:58.572Z,1002.41
2022-12-26T03:54:39.120Z,1002.35
2022-12-26T03:55:19.542Z,1002.37
2022-12-26T03:56:00.040Z,1002.33
2022-12-26T03:56:40.516Z,1002.33
2022-12-26T03:58:01.520Z,1002.36
2022-12-26T03:58:41.991Z,1002.33
2022-12-26T03:59:22.572Z,1002.33
2022-12-26T04:00:03.011Z,1002.36
2022-12-26T04:00:43.461Z,1002.39
2022-12-26T04:01:24.097Z,1002.32
2022-12-26T04:02:04.540Z,1002.34
2022-12-26T04:02:44.894Z,1002.29
2022-12-26T04:03:25.429Z,1002.21
2022-12-26T04:04:05.902Z,1002.22
2022-12-26T04:04:46.376Z,1002.23
2022-12-26T04:05:26.845Z,1002.26
2022-12-26T04:06:07.365Z,1002.25
2022-12-26T04:06:47.881Z,1002.3
2022-12-26T04:07:28.320Z,1002.3
2022-12-26T04:08:11.129Z,1002.33
2022-12-26T04:08:49.285Z,1002.36
2022-12-26T04:09:29.795Z,1002.39
2022-12-26T04:10:10.294Z,1002.34
2022-12-26T04:10:50.790Z,1002.39
2022-12-26T04:11:31.304Z,1002.3
2022-12-26T04:12:11.733Z,1002.4
2022-12-26T04:12:52.215Z,1002.41
2022-12-26T04:13:32.711Z,1002.44
2022-12-26T04:14:13.235Z,1002.4
2022-12-26T04:14:53.685Z,1002.48
2022-12-26T04:15:34.201Z,1002.47
2022-12-26T04:16:14.744Z,1002.48
2022-12-26T04:16:55.184Z,1002.5
2022-12-26T04:17:35.710Z,1002.56
2022-12-26T04:18:16.132Z,1002.52
2022-12-26T04:18:56.641Z,1002.49
2022-12-26T04:21:55.531Z,1002.43
2022-12-26T04:22:36.082Z,1002.51
2022-12-26T04:23:16.551Z,1002.43
2022-12-26T04:23:57.034Z,1002.5
2022-12-26T04:24:37.499Z,1002.43
2022-12-26T04:25:18.009Z,1002.5
2022-12-26T04:25:58.461Z,1002.46
2022-12-26T04:26:38.938Z,1002.46
2022-12-26T04:27:19.411Z,1002.45
2022-12-26T04:27:59.883Z,1002.33
2022-12-26T04:28:40.372Z,1002.46
2022-12-26T04:29:20.833Z,1002.34
2022-12-26T04:30:01.320Z,1002.35
2022-12-26T04:30:41.876Z,1002.33
2022-12-26T04:31:22.316Z,1002.4
2022-12-26T04:32:02.773Z,1002.44
2022-12-26T04:32:43.319Z,1002.39
2022-12-26T04:33:23.744Z,1002.44
2022-12-26T04:34:44.752Z,1002.44
2022-12-26T04:35:25.223Z,1002.46
2022-12-26T04:36:05.675Z,1002.55
2022-12-26T04:36:46.186Z,1002.49
2022-12-26T04:37:26.648Z,1002.51
2022-12-26T04:38:07.156Z,1002.57
2022-12-26T04:38:47.590Z,1002.51
2022-12-26T04:39:28.063Z,1002.55
2022-12-26T04:41:40.810Z,1002.53
2022-12-26T04:42:21.305Z,1002.51
2022-12-26T04:43:01.794Z,1002.54
2022-12-26T04:43:47.806Z,1002.53
2022-12-26T04:44:22.791Z,1002.44
2022-12-26T04:45:43.802Z,1002.57
2022-12-26T04:46:24.326Z,1002.58
2022-12-26T04:48:37.298Z,1002.58
2022-12-26T04:49:17.687Z,1002.63
2022-12-26T04:49:58.142Z,1002.61
2022-12-26T04:50:38.664Z,1002.62
2022-12-26T04:51:19.146Z,1002.59
2022-12-26T04:51:59.628Z,1002.57
2022-12-26T04:52:40.131Z,1002.54
2022-12-26T04:53:20.585Z,1002.55
2022-12-26T04:54:01.105Z,1002.57
2022-12-26T04:54:41.593Z,1002.56
2022-12-26T04:55:22.151Z,1002.61
2022-12-26T04:56:02.583Z,1002.53
2022-12-26T04:56:43.093Z,1002.56
2022-12-26T04:57:23.575Z,1002.53
2022-12-26T04:58:44.568Z,1002.57
2022-12-26T04:59:25.046Z,1002.58
2022-12-26T05:00:05.539Z,1002.57
2022-12-26T05:00:46.069Z,1002.59
2022-12-26T05:01:26.606Z,1002.6
2022-12-26T05:02:07.135Z,1002.64
2022-12-26T05:02:47.614Z,1002.6
2022-12-26T05:03:27.965Z,1002.7
2022-12-26T05:04:08.445Z,1002.67
2022-12-26T05:04:48.929Z,1002.68
2022-12-26T05:05:29.513Z,1002.72
2022-12-26T05:06:50.454Z,1002.69
2022-12-26T05:07:30.873Z,1002.66
2022-12-26T05:08:11.419Z,1002.63
2022-12-26T05:08:51.906Z,1002.7
2022-12-26T05:09:32.359Z,1002.72
2022-12-26T05:10:12.854Z,1002.68
2022-12-26T05:10:53.339Z,1002.71
2022-12-26T05:11:33.832Z,1002.72
2022-12-26T05:12:14.303Z,1002.71
2022-12-26T05:12:54.795Z,1002.79
2022-12-26T05:13:35.279Z,1002.77
2022-12-26T05:14:15.776Z,1002.77
2022-12-26T05:14:56.256Z,1002.81
2022-12-26T05:15:36.755Z,1002.78
2022-12-26T05:16:17.274Z,1002.85
2022-12-26T05:16:57.720Z,1002.89
2022-12-26T05:17:38.209Z,1002.85
2022-12-26T05:18:18.693Z,1002.83
2022-12-26T05:18:59.205Z,1002.82
2022-12-26T05:19:39.697Z,1002.77
2022-12-26T05:20:20.185Z,1002.77
2022-12-26T05:21:00.690Z,1002.76
2022-12-26T05:21:41.152Z,1002.62
2022-12-26T05:22:21.614Z,1002.65
2022-12-26T05:23:02.092Z,1002.62
2022-12-26T05:23:42.632Z,1002.61
2022-12-26T05:24:23.085Z,1002.63
2022-12-26T05:25:03.605Z,1002.69
2022-12-26T05:25:44.053Z,1002.72
2022-12-26T05:26:24.509Z,1002.66
2022-12-26T05:27:04.996Z,1002.72
2022-12-26T05:27:45.488Z,1002.69
2022-12-26T05:28:25.970Z,1002.63
2022-12-26T05:29:06.458Z,1002.68
2022-12-26T05:29:46.937Z,1002.64
2022-12-26T05:30:27.452Z,1002.66
2022-12-26T05:31:07.962Z,1002.66
2022-12-26T05:31:48.431Z,1002.65
2022-12-26T05:32:28.852Z,1002.7
2022-12-26T05:33:09.401Z,1002.73
2022-12-26T05:33:49.876Z,1002.7
2022-12-26T05:34:31.019Z,1002.72
2022-12-26T05:35:10.821Z,1002.7
2022-12-26T05:35:52.196Z,1002.73
2022-12-26T05:36:32.669Z,1002.63
2022-12-26T05:37:13.200Z,1002.73
2022-12-26T05:37:53.627Z,1002.73
2022-12-26T05:38:34.096Z,1002.78
2022-12-26T05:39:14.595Z,1002.76
2022-12-26T05:39:55.055Z,1002.78
2022-12-26T05:40:35.574Z,1002.76
2022-12-26T05:41:16.028Z,1002.77
2022-12-26T05:41:56.498Z,1002.79
2022-12-26T05:42:36.991Z,1002.76
2022-12-26T05:43:17.490Z,1002.8
2022-12-26T05:43:57.969Z,1002.74
2022-12-26T05:44:38.464Z,1002.74
2022-12-26T05:45:18.950Z,1002.73
2022-12-26T05:46:40.053Z,1002.69
2022-12-26T05:47:20.437Z,1002.72
2022-12-26T05:48:00.950Z,1002.71
2022-12-26T05:48:41.404Z,1002.65
2022-12-26T05:49:21.892Z,1002.67
2022-12-26T05:50:02.354Z,1002.62
2022-12-26T05:50:42.837Z,1002.56
2022-12-26T05:51:23.334Z,1002.56
2022-12-26T05:52:03.858Z,1002.55
2022-12-26T05:52:44.330Z,1002.6
2022-12-26T06:32:01.987Z,1002.91
2022-12-26T06:32:42.351Z,1002.88
2022-12-26T06:33:22.900Z,1002.88
2022-12-26T06:34:03.360Z,1002.87
2022-12-26T06:34:43.879Z,1002.9
2022-12-26T06:35:24.330Z,1002.9
2022-12-26T06:36:04.825Z,1002.88
2022-12-26T06:36:45.376Z,1002.85
2022-12-26T06:37:25.835Z,1002.88
2022-12-26T06:38:06.380Z,1002.86
2022-12-26T06:38:46.817Z,1002.89
2022-12-26T06:39:27.324Z,1002.89
2022-12-26T06:40:07.848Z,1002.87
2022-12-26T06:41:28.820Z,1002.95
2022-12-26T06:42:09.320Z,1002.93
2022-12-26T06:42:49.838Z,1002.96
2022-12-26T06:43:30.307Z,1003.01
2022-12-26T06:44:16.228Z,1002.94
2022-12-26T06:44:51.242Z,1002.9
2022-12-26T06:45:31.777Z,1002.87
2022-12-26T06:46:12.305Z,1002.89
2022-12-26T06:46:52.806Z,1002.87
2022-12-26T06:47:33.265Z,1002.91
2022-12-26T06:48:13.745Z,1002.89
2022-12-26T06:48:54.256Z,1002.88
2022-12-26T06:49:34.759Z,1002.92
2022-12-26T06:50:15.281Z,1002.96
2022-12-26T06:50:55.757Z,1003
2022-12-26T06:51:36.244Z,1003.05
2022-12-26T06:52:16.767Z,1003.03
2022-12-26T06:52:57.261Z,1003.08
2022-12-26T06:53:37.733Z,1003.08
2022-12-26T06:54:18.257Z,1003.04
2022-12-26T06:54:58.756Z,1003.08
2022-12-26T06:55:39.231Z,1003.05
2022-12-26T06:56:19.749Z,1003.07
2022-12-26T06:57:00.262Z,1003.07
2022-12-26T06:57:40.694Z,1003.11
2022-12-26T06:58:21.295Z,1003.17
2022-12-26T06:59:01.725Z,1003.21
2022-12-26T06:59:42.251Z,1003.19
2022-12-26T07:00:22.732Z,1003.21
2022-12-26T07:01:03.298Z,1003.18
2022-12-26T07:01:43.856Z,1003.18
2022-12-26T07:02:24.382Z,1003.17
2022-12-26T07:03:04.888Z,1003.23
2022-12-26T07:03:51.032Z,1003.25
2022-12-26T07:04:25.792Z,1003.17
2022-12-26T07:05:06.245Z,1003.23
2022-12-26T07:05:46.752Z,1003.23
2022-12-26T07:06:27.287Z,1003.2
2022-12-26T07:07:07.811Z,1003.23
2022-12-26T07:07:48.284Z,1003.15
2022-12-26T07:08:28.833Z,1003.17
2022-12-26T07:09:09.336Z,1003.11
2022-12-26T07:09:49.827Z,1003.15
2022-12-26T07:10:30.382Z,1003.16
2022-12-26T07:11:10.831Z,1003.16
2022-12-26T07:11:51.360Z,1003.11
2022-12-26T07:12:31.819Z,1003.14
2022-12-26T07:13:12.330Z,1003.18
2022-12-26T07:13:52.842Z,1003.15
2022-12-26T07:14:33.351Z,1003.11
2022-12-26T07:15:13.856Z,1003.2
2022-12-26T07:16:34.912Z,1003.23
2022-12-26T07:17:15.347Z,1003.24
2022-12-26T07:17:55.868Z,1003.28
2022-12-26T07:18:36.398Z,1003.27
2022-12-26T07:19:16.873Z,1003.27
2022-12-26T07:19:57.338Z,1003.18
2022-12-26T07:20:37.867Z,1003.17
2022-12-26T07:21:18.351Z,1003.14
2022-12-26T07:21:58.854Z,1003.17
2022-12-26T07:22:39.306Z,1003.23
2022-12-26T07:23:19.813Z,1003.24
2022-12-26T07:24:00.335Z,1003.26
2022-12-26T07:24:40.857Z,1003.37
2022-12-26T07:25:21.380Z,1003.35
2022-12-26T07:26:01.859Z,1003.39
2022-12-26T07:26:42.365Z,1003.38
2022-12-26T07:27:22.837Z,1003.36
2022-12-26T07:28:03.327Z,1003.37
2022-12-26T07:28:43.870Z,1003.41
2022-12-26T07:29:24.286Z,1003.4
2022-12-26T07:30:04.786Z,1003.41
2022-12-26T07:30:45.292Z,1003.4
2022-12-26T07:31:25.828Z,1003.45
2022-12-26T07:32:06.320Z,1003.48
2022-12-26T07:32:46.740Z,1003.51
2022-12-26T07:33:27.219Z,1003.55
2022-12-26T07:34:07.761Z,1003.61
2022-12-26T07:34:48.226Z,1003.64
2022-12-26T07:35:28.736Z,1003.63
2022-12-26T07:36:09.169Z,1003.65
2022-12-26T07:36:49.673Z,1003.61
2022-12-26T07:37:30.176Z,1003.65
2022-12-26T07:38:10.673Z,1003.63
2022-12-26T07:38:51.229Z,1003.6
2022-12-26T07:39:31.786Z,1003.56
2022-12-26T07:40:12.295Z,1003.62
2022-12-26T07:40:52.722Z,1003.61
2022-12-26T07:41:33.260Z,1003.64
2022-12-26T07:42:13.702Z,1003.68
2022-12-26T07:42:54.221Z,1003.69
2022-12-26T07:43:34.843Z,1003.74
2022-12-26T07:44:15.301Z,1003.68
2022-12-26T07:44:55.785Z,1003.67
2022-12-26T07:45:40.441Z,1003.62
2022-12-26T07:46:16.819Z,1003.58
2022-12-26T07:46:57.322Z,1003.66
2022-12-26T07:47:37.809Z,1003.68
2022-12-26T07:48:18.339Z,1003.73
2022-12-26T07:50:15.977Z,1003.75
2022-12-26T07:50:56.412Z,1003.72
2022-12-26T07:51:36.943Z,1003.78
2022-12-26T07:52:17.493Z,1003.8
2022-12-26T07:52:57.949Z,1003.77
2022-12-26T07:53:38.440Z,1003.72
2022-12-26T07:54:18.932Z,1003.73
2022-12-26T07:54:59.410Z,1003.68
2022-12-26T07:55:39.939Z,1003.62
2022-12-26T07:57:22.295Z,1003.72
2022-12-26T07:57:49.509Z,1003.73
2022-12-26T07:58:21.842Z,1003.84
2022-12-26T07:59:02.340Z,1003.79
2022-12-26T07:59:42.816Z,1003.84
2022-12-26T08:00:23.329Z,1003.85
2022-12-26T08:01:03.905Z,1003.84
2022-12-26T08:01:44.399Z,1003.79
2022-12-26T08:02:24.934Z,1003.77
2022-12-26T08:03:07.949Z,1003.74
2022-12-26T08:03:45.800Z,1003.79
2022-12-26T08:04:26.177Z,1003.74
2022-12-26T08:05:06.667Z,1003.8
2022-12-26T08:05:47.177Z,1003.78
2022-12-26T08:07:08.119Z,1003.8
2022-12-26T08:07:48.615Z,1003.78
2022-12-26T08:08:29.132Z,1003.69
2022-12-26T08:09:09.656Z,1003.72
2022-12-26T08:09:50.143Z,1003.66
2022-12-26T08:10:30.610Z,1003.62
2022-12-26T08:11:11.071Z,1003.68
2022-12-26T08:11:51.616Z,1003.71
2022-12-26T08:12:32.092Z,1003.64
2022-12-26T08:13:12.556Z,1003.67
2022-12-26T08:13:53.046Z,1003.72
2022-12-26T08:14:33.537Z,1003.75
2022-12-26T08:15:14.010Z,1003.69
2022-12-26T08:15:55.436Z,1003.66
2022-12-26T08:17:15.484Z,1003.72
2022-12-26T08:17:55.929Z,1003.75
2022-12-26T08:18:36.476Z,1003.73
2022-12-26T08:19:16.953Z,1003.67
2022-12-26T08:19:57.460Z,1003.78
2022-12-26T08:20:37.986Z,1003.69
2022-12-26T08:21:18.512Z,1003.68
2022-12-26T08:21:58.966Z,1003.69
2022-12-26T08:22:39.447Z,1003.69
2022-12-26T08:23:19.976Z,1003.72
2022-12-26T08:24:00.395Z,1003.75
2022-12-26T08:24:40.937Z,1003.75
2022-12-26T08:25:21.990Z,1003.72
2022-12-26T08:26:01.910Z,1003.72
2022-12-26T08:26:42.406Z,1003.7
2022-12-26T08:27:22.880Z,1003.74
2022-12-26T08:28:03.385Z,1003.76
2022-12-26T08:28:43.864Z,1003.78
2022-12-26T08:29:24.415Z,1003.73
2022-12-26T08:30:04.894Z,1003.69
2022-12-26T08:30:45.371Z,1003.66
2022-12-26T08:32:06.382Z,1003.68
2022-12-26T08:32:46.849Z,1003.67
2022-12-26T08:33:27.335Z,1003.7
2022-12-26T08:34:07.824Z,1003.63
2022-12-26T08:34:48.353Z,1003.61
2022-12-26T08:35:28.832Z,1003.68
2022-12-26T08:36:09.322Z,1003.65
2022-12-26T08:36:49.820Z,1003.7
2022-12-26T08:37:30.297Z,1003.7
2022-12-26T08:38:10.790Z,1003.7
2022-12-26T08:38:51.277Z,1003.62
2022-12-26T08:39:31.788Z,1003.64
2022-12-26T08:40:12.803Z,1003.73
2022-12-26T08:40:52.781Z,1003.74
2022-12-26T08:41:33.263Z,1003.68
2022-12-26T08:42:13.735Z,1003.71
2022-12-26T08:43:11.977Z,1003.71
2022-12-26T08:44:30.610Z,1003.75
2022-12-26T08:44:55.708Z,1003.67
2022-12-26T08:45:36.220Z,1003.71
2022-12-26T08:46:16.738Z,1003.8
2022-12-26T08:48:44.590Z,1003.76
2022-12-26T08:49:25.138Z,1003.78
2022-12-26T08:50:05.572Z,1003.77
2022-12-26T08:50:46.061Z,1003.79
2022-12-26T08:51:26.606Z,1003.8
2022-12-26T08:52:07.163Z,1003.76
2022-12-26T08:52:47.599Z,1003.76
2022-12-26T08:53:30.090Z,1003.76
2022-12-26T08:54:51.286Z,1003.78
2022-12-26T08:55:31.949Z,1003.84
2022-12-26T08:56:12.427Z,1003.88
2022-12-26T08:56:53.135Z,1003.89
2022-12-26T08:57:33.540Z,1003.91
2022-12-26T08:58:14.595Z,1003.91
2022-12-26T08:58:54.946Z,1003.93
2022-12-26T08:59:35.427Z,1003.98
2022-12-26T09:00:15.937Z,1003.97
2022-12-26T09:00:56.597Z,1004.01
2022-12-26T09:01:37.109Z,1004.07
2022-12-26T09:02:17.787Z,1004.05
2022-12-26T09:02:58.586Z,1004.02
2022-12-26T09:03:39.536Z,1004.13
2022-12-26T09:04:19.886Z,1004.09
2022-12-26T09:05:00.617Z,1003.92
2022-12-26T09:05:41.127Z,1004.14
2022-12-26T09:06:21.654Z,1004.14
2022-12-26T09:07:02.230Z,1004.08
2022-12-26T09:07:42.704Z,1004.01
2022-12-26T09:08:23.258Z,1004.26
2022-12-26T09:09:03.719Z,1004.18
2022-12-26T09:09:44.233Z,1004.13
2022-12-26T09:10:24.848Z,1004.18
2022-12-26T09:11:05.618Z,1004.12
2022-12-26T09:11:46.189Z,1004.1
2022-12-26T09:12:26.692Z,1004.18
2022-12-26T09:13:07.225Z,1004.19
2022-12-26T09:13:47.747Z,1004.16
2022-12-26T09:15:08.701Z,1004.2
2022-12-26T09:15:49.222Z,1004.25
2022-12-26T09:16:34.224Z,1004.23
2022-12-26T09:17:10.327Z,1004.22
2022-12-26T09:17:50.751Z,1004.29
2022-12-26T09:18:31.232Z,1004.25
2022-12-26T09:19:11.814Z,1004.29
2022-12-26T09:19:52.323Z,1004.27
2022-12-26T09:20:32.806Z,1004.2
2022-12-26T09:21:13.297Z,1004.24
2022-12-26T09:23:10.988Z,1004.31
2022-12-26T09:23:51.503Z,1004.28
2022-12-26T09:24:32.214Z,1004.23
2022-12-26T09:25:12.650Z,1004.22
2022-12-26T09:25:53.154Z,1004.27
2022-12-26T09:26:33.685Z,1004.33
2022-12-26T09:27:58.958Z,1004.43
2022-12-26T09:28:35.384Z,1004.42
2022-12-26T09:29:15.931Z,1004.48
2022-12-26T09:29:58.831Z,1004.26
2022-12-26T09:30:38.535Z,1004.44
2022-12-26T09:31:22.633Z,1004.39
2022-12-26T09:32:03.532Z,1004.41
2022-12-26T09:32:45.098Z,1004.41
2022-12-26T09:33:25.158Z,1004.38
2022-12-26T09:34:05.910Z,1004.39
2022-12-26T09:34:46.665Z,1004.41
2022-12-26T09:35:27.495Z,1004.31
2022-12-26T09:36:12.637Z,1004.52
2022-12-26T09:36:48.395Z,1004.4
2022-12-26T09:37:29.766Z,1004.54
2022-12-26T09:38:10.514Z,1004.47
2022-12-26T09:38:51.102Z,1004.61
2022-12-26T09:39:31.561Z,1004.66
2022-12-26T09:42:00.717Z,1004.69
2022-12-26T09:42:40.348Z,1004.72
2022-12-26T09:43:20.862Z,1004.72
2022-12-26T09:44:01.391Z,1004.65
2022-12-26T09:44:41.902Z,1004.75
2022-12-26T09:45:22.635Z,1004.72
2022-12-26T09:46:03.193Z,1004.73
2022-12-26T09:46:43.794Z,1004.71
2022-12-26T09:47:24.246Z,1004.69
2022-12-26T09:48:04.710Z,1004.71
2022-12-26T09:48:45.192Z,1004.73
2022-12-26T09:49:25.680Z,1004.7
2022-12-26T09:50:06.233Z,1004.78
2022-12-26T09:50:46.695Z,1004.73
2022-12-26T09:51:27.344Z,1004.74
2022-12-26T09:52:07.706Z,1004.76
2022-12-26T09:53:28.817Z,1004.75
2022-12-26T09:54:09.375Z,1004.74
2022-12-26T09:54:49.833Z,1004.7
2022-12-26T09:56:18.445Z,1004.71
2022-12-26T09:57:11.371Z,1004.7
2022-12-26T09:57:31.832Z,1004.74
2022-12-26T09:58:12.321Z,1004.71